createdAt,value
2022-09-01T00:00:53.817Z,5.45
2022-09-01T00:03:25.281Z,4.38
2022-09-01T00:05:57.414Z,7.00
2022-09-01T00:08:25.482Z,7.05
2022-09-01T00:10:53.182Z,3.88
2022-09-01T00:13:20.861Z,3.45
2022-09-01T00:15:48.987Z,4.28
2022-09-01T00:18:16.750Z,3.95
2022-09-01T00:20:44.673Z,3.75
2022-09-01T00:23:12.425Z,4.47
2022-09-01T00:25:40.441Z,2.75
2022-09-01T00:28:08.468Z,3.63
2022-09-01T00:30:38.280Z,2.85
2022-09-01T00:33:06.003Z,5.72
2022-09-01T00:35:36.836Z,1.95
2022-09-01T00:38:05.331Z,4.63
2022-09-01T00:40:33.818Z,3.05
2022-09-01T00:43:02.660Z,4.50
2022-09-01T00:45:31.315Z,2.75
2022-09-01T00:47:59.233Z,3.35
2022-09-01T00:50:27.437Z,2.50
2022-09-01T00:52:56.057Z,4.70
2022-09-01T00:55:33.724Z,4.47
2022-09-01T00:58:03.915Z,3.80
2022-09-01T01:00:41.863Z,5.07
2022-09-01T01:03:11.900Z,2.13
2022-09-01T01:05:49.070Z,3.05
2022-09-01T01:08:18.720Z,2.97
2022-09-01T01:10:46.731Z,4.70
2022-09-01T01:13:17.850Z,1.83
2022-09-01T01:15:45.635Z,2.45
2022-09-01T01:18:16.960Z,2.78
2022-09-01T01:21:26.379Z,3.55
2022-09-01T01:24:22.238Z,2.17
2022-09-01T01:26:51.846Z,1.63
2022-09-01T01:29:20.267Z,3.00
2022-09-01T01:31:54.059Z,2.38
2022-09-01T01:34:23.607Z,2.38
2022-09-01T01:36:52.551Z,2.63
2022-09-01T01:39:25.784Z,3.25
2022-09-01T01:41:55.927Z,2.40
2022-09-01T01:44:28.626Z,7.95
2022-09-01T01:47:01.767Z,2.75
2022-09-01T01:49:31.440Z,2.80
2022-09-01T01:51:59.304Z,2.85
2022-09-01T01:54:32.888Z,1.90
2022-09-01T01:57:02.333Z,6.43
2022-09-01T01:59:30.118Z,2.60
2022-09-01T02:01:58.671Z,1.80
2022-09-01T02:04:27.420Z,1.70
2022-09-01T02:06:56.235Z,1.63
2022-09-01T02:09:24.355Z,3.38
2022-09-01T02:11:57.462Z,2.60
2022-09-01T02:14:26.235Z,3.53
2022-09-01T02:16:56.341Z,1.63
2022-09-01T02:19:24.127Z,1.33
2022-09-01T02:21:56.438Z,2.42
2022-09-01T02:24:24.991Z,1.95
2022-09-01T02:26:52.894Z,3.88
2022-09-01T02:29:23.792Z,2.35
2022-09-01T02:31:54.410Z,1.27
2022-09-01T02:34:25.327Z,1.20
2022-09-01T02:36:57.428Z,2.70
2022-09-01T02:39:29.191Z,2.88
2022-09-01T02:41:57.178Z,1.60
2022-09-01T02:44:28.111Z,2.90
2022-09-01T02:46:56.771Z,2.25
2022-09-01T02:49:28.705Z,1.92
2022-09-01T02:52:02.099Z,1.50
2022-09-01T02:54:33.142Z,1.25
2022-09-01T02:57:01.864Z,1.50
2022-09-01T02:59:31.276Z,2.13
2022-09-01T03:02:01.591Z,3.88
2022-09-01T03:04:35.278Z,2.22
2022-09-01T03:07:06.981Z,1.65
2022-09-01T03:09:35.918Z,1.95
2022-09-01T03:12:07.437Z,2.30
2022-09-01T03:14:35.902Z,1.77
2022-09-01T03:17:03.834Z,1.00
2022-09-01T03:19:40.386Z,2.35
2022-09-01T03:22:08.403Z,1.45
2022-09-01T03:24:37.086Z,3.53
2022-09-01T03:27:05.187Z,1.70
2022-09-01T03:29:33.126Z,1.88
2022-09-01T03:32:01.682Z,1.80
2022-09-01T03:34:29.533Z,0.73
2022-09-01T03:36:57.299Z,3.58
2022-09-01T03:39:30.049Z,1.25
2022-09-01T03:41:59.372Z,3.72
2022-09-01T03:44:27.920Z,3.03
2022-09-01T03:46:59.773Z,8.23
2022-09-01T03:49:30.244Z,3.65
2022-09-01T03:51:58.632Z,1.70
2022-09-01T03:54:30.693Z,2.00
2022-09-01T03:57:00.127Z,1.30
2022-09-01T03:59:30.443Z,3.20
2022-09-01T04:02:00.652Z,4.47
2022-09-01T04:04:33.250Z,3.33
2022-09-01T04:07:01.323Z,4.38
2022-09-01T04:09:30.418Z,6.88
2022-09-01T04:11:57.934Z,6.00
2022-09-01T04:14:29.845Z,5.07
2022-09-01T04:17:17.243Z,20.77
2022-09-01T04:19:44.910Z,9.38
2022-09-01T04:22:14.762Z,26.00
2022-09-01T04:24:46.661Z,16.23
2022-09-01T04:27:18.368Z,21.23
2022-09-01T04:29:47.159Z,23.40
2022-09-01T04:32:16.262Z,16.83
2022-09-01T04:34:49.831Z,11.43
2022-09-01T04:37:22.058Z,14.52
2022-09-01T04:40:02.524Z,15.43
2022-09-01T04:42:33.104Z,14.65
2022-09-01T04:45:10.441Z,7.45
2022-09-01T04:47:43.200Z,11.25
2022-09-01T04:50:17.959Z,21.48
2022-09-01T04:53:06.485Z,6.10
2022-09-01T04:55:49.906Z,12.20
2022-09-01T04:58:20.895Z,12.43
2022-09-01T05:00:56.111Z,9.10
2022-09-01T05:03:24.924Z,8.93
2022-09-01T05:06:04.131Z,6.60
2022-09-01T05:08:36.394Z,8.05
2022-09-01T05:11:18.009Z,9.70
2022-09-01T05:13:49.511Z,3.72
2022-09-01T05:16:25.060Z,6.45
2022-09-01T05:18:58.317Z,11.02
2022-09-01T05:21:32.810Z,5.82
2022-09-01T05:24:01.662Z,3.72
2022-09-01T05:26:33.964Z,4.75
2022-09-01T05:29:10.958Z,7.75
2022-09-01T05:31:41.504Z,13.82
2022-09-01T05:34:13.929Z,9.43
2022-09-01T05:36:46.684Z,14.85
2022-09-01T05:39:15.112Z,16.30
2022-09-01T05:41:43.327Z,14.85
2022-09-01T05:44:12.387Z,10.48
2022-09-01T05:46:40.721Z,17.73
2022-09-01T05:49:13.912Z,22.33
2022-09-01T05:51:46.435Z,9.63
2022-09-01T05:54:24.505Z,11.93
2022-09-01T05:56:53.836Z,22.63
2022-09-01T05:59:28.168Z,11.23
2022-09-01T06:02:01.345Z,12.27
2022-09-01T06:04:30.605Z,20.52
2022-09-01T06:07:12.739Z,9.85
2022-09-01T06:09:49.656Z,10.20
2022-09-01T06:12:24.410Z,11.07
2022-09-01T06:14:55.793Z,19.60
2022-09-01T06:17:26.747Z,11.80
2022-09-01T06:19:58.353Z,15.00
2022-09-01T06:22:28.733Z,8.20
2022-09-01T06:25:02.773Z,7.43
2022-09-01T06:27:41.601Z,6.50
2022-09-01T06:30:15.353Z,8.00
2022-09-01T06:32:52.151Z,9.77
2022-09-01T06:35:21.673Z,8.07
2022-09-01T06:37:49.709Z,8.82
2022-09-01T06:40:36.421Z,10.47
2022-09-01T06:43:08.288Z,6.55
2022-09-01T06:45:55.191Z,9.68
2022-09-01T06:48:27.563Z,4.65
2022-09-01T06:51:19.516Z,5.75
2022-09-01T06:53:57.124Z,7.07
2022-09-01T06:59:34.767Z,8.10
2022-09-01T07:02:04.878Z,9.90
2022-09-01T07:05:03.119Z,11.27
2022-09-01T07:13:36.471Z,7.28
2022-09-01T07:18:59.082Z,7.55
2022-09-01T07:21:42.166Z,9.60
2022-09-01T07:24:21.858Z,4.45
2022-09-01T07:27:12.716Z,9.27
2022-09-01T07:29:41.631Z,5.50
2022-09-01T07:35:00.196Z,9.25
2022-09-01T07:39:57.604Z,7.28
2022-09-01T07:43:29.627Z,6.53
2022-09-01T07:46:37.091Z,10.07
2022-09-01T07:51:57.674Z,10.20
2022-09-01T07:54:27.968Z,7.53
2022-09-01T07:56:57.936Z,8.73
2022-09-01T07:59:28.217Z,7.28
2022-09-01T08:02:19.446Z,4.65
2022-09-01T08:04:49.510Z,6.10
2022-09-01T08:07:18.655Z,7.55
2022-09-01T08:09:48.640Z,5.60
2022-09-01T08:12:17.435Z,6.25
2022-09-01T08:17:51.479Z,3.90
2022-09-01T08:20:23.097Z,4.68
2022-09-01T08:22:59.443Z,10.60
2022-09-01T08:25:36.999Z,10.45
2022-09-01T08:28:06.401Z,7.00
2022-09-01T08:30:36.055Z,12.63
2022-09-01T08:33:12.428Z,11.25
2022-09-01T08:35:52.550Z,8.30
2022-09-01T08:38:21.181Z,6.80
2022-09-01T08:40:57.373Z,3.30
2022-09-01T08:43:55.280Z,7.07
2022-09-01T08:46:41.612Z,2.95
2022-09-01T08:49:42.094Z,4.47
2022-09-01T08:53:36.144Z,6.05
2022-09-01T08:56:05.611Z,3.55
2022-09-01T08:58:33.582Z,8.75
2022-09-01T09:02:23.444Z,16.83
2022-09-01T09:05:16.532Z,4.38
2022-09-01T09:08:12.849Z,7.20
2022-09-01T09:11:03.334Z,96.97
2022-09-01T09:13:59.231Z,6.93
2022-09-01T09:19:32.272Z,10.43
2022-09-01T09:22:06.096Z,12.88
2022-09-01T09:25:11.426Z,11.55
2022-09-01T09:27:46.216Z,15.75
2022-09-01T09:30:34.947Z,18.35
2022-09-01T09:36:25.333Z,17.02
2022-09-01T09:39:19.235Z,7.43
2022-09-01T09:42:10.210Z,2.55
2022-09-01T09:44:51.469Z,17.05
2022-09-01T09:47:44.706Z,16.08
2022-09-01T09:50:23.781Z,9.75
2022-09-01T09:52:54.269Z,10.52
2022-09-01T09:55:28.331Z,11.50
2022-09-01T09:58:01.672Z,9.63
2022-09-01T10:00:35.192Z,5.82
2022-09-01T10:03:15.336Z,6.50
2022-09-01T10:05:48.736Z,6.88
2022-09-01T10:08:30.644Z,4.18
2022-09-01T10:10:58.992Z,5.90
2022-09-01T10:13:33.073Z,2.75
2022-09-01T10:16:12.828Z,6.05
2022-09-01T10:18:46.449Z,1.83
2022-09-01T10:21:27.912Z,2.75
2022-09-01T10:24:16.054Z,5.00
2022-09-01T10:26:48.476Z,11.23
2022-09-01T10:29:24.344Z,19.10
2022-09-01T10:32:14.859Z,11.93
2022-09-01T10:34:44.335Z,7.57
2022-09-01T10:37:15.976Z,7.20
2022-09-01T10:40:49.135Z,10.02
2022-09-01T10:43:38.515Z,9.35
2022-09-01T10:46:26.143Z,8.02
2022-09-01T10:49:02.759Z,13.07
2022-09-01T10:51:39.626Z,26.75
2022-09-01T10:54:57.281Z,12.75
2022-09-01T10:58:07.341Z,63.10
2022-09-01T11:00:39.777Z,25.13
2022-09-01T11:06:12.627Z,9.70
2022-09-01T11:08:58.983Z,6.18
2022-09-01T11:11:59.616Z,7.63
2022-09-01T11:14:27.704Z,2.85
2022-09-01T11:17:20.965Z,2.85
2022-09-01T11:20:05.033Z,4.03
2022-09-01T11:22:41.925Z,2.75
2022-09-01T11:25:46.838Z,2.45
2022-09-01T11:28:23.177Z,1.75
2022-09-01T11:31:21.652Z,6.28
2022-09-01T11:34:18.611Z,4.25
2022-09-01T11:36:54.018Z,8.82
2022-09-01T11:39:42.216Z,5.65
2022-09-01T11:42:46.735Z,10.45
2022-09-01T11:45:31.948Z,3.95
2022-09-01T11:50:36.237Z,2.55
2022-09-01T11:53:10.437Z,11.68
2022-09-01T11:55:42.523Z,1.83
2022-09-01T11:58:29.423Z,5.13
2022-09-01T12:01:12.245Z,3.67
2022-09-01T12:03:41.594Z,9.35
2022-09-01T12:06:13.754Z,4.47
2022-09-01T12:08:53.464Z,7.55
2022-09-01T12:11:30.886Z,8.50
2022-09-01T12:14:07.666Z,5.38
2022-09-01T12:16:43.389Z,2.63
2022-09-01T12:19:30.708Z,3.55
2022-09-01T12:22:15.353Z,16.70
2022-09-01T12:24:54.301Z,9.23
2022-09-01T12:27:25.530Z,4.95
2022-09-01T12:29:53.388Z,4.25
2022-09-01T12:32:22.187Z,1.60
2022-09-01T12:35:10.991Z,4.78
2022-09-01T12:37:39.393Z,7.40
2022-09-01T12:40:39.634Z,8.40
2022-09-01T12:43:10.090Z,6.28
2022-09-01T12:45:48.425Z,4.07
2022-09-01T12:48:35.881Z,5.20
2022-09-01T12:51:30.944Z,6.38
2022-09-01T12:54:04.716Z,4.80
2022-09-01T12:56:39.392Z,10.43
2022-09-01T12:59:14.178Z,3.75
2022-09-01T13:01:43.913Z,7.38
2022-09-01T13:04:31.251Z,4.70
2022-09-01T13:07:08.994Z,6.30
2022-09-01T13:09:37.023Z,12.45
2022-09-01T13:12:22.047Z,6.53
2022-09-01T13:14:49.611Z,7.03
2022-09-01T13:17:17.964Z,7.60
2022-09-01T13:19:45.624Z,4.43
2022-09-01T13:22:13.164Z,6.82
2022-09-01T13:24:40.776Z,3.50
2022-09-01T13:27:24.158Z,4.53
2022-09-01T13:29:52.558Z,6.80
2022-09-01T13:32:22.370Z,5.90
2022-09-01T13:34:52.621Z,11.65
2022-09-01T13:37:22.364Z,17.25
2022-09-01T13:39:50.756Z,13.50
2022-09-01T13:42:18.796Z,10.77
2022-09-01T13:44:49.650Z,6.68
2022-09-01T13:48:14.791Z,15.73
2022-09-01T13:50:14.933Z,12.35
2022-09-01T13:52:55.225Z,10.13
2022-09-01T13:55:33.795Z,37.78
2022-09-01T13:58:01.844Z,29.77
2022-09-01T14:00:35.631Z,9.85
2022-09-01T14:03:08.391Z,13.23
2022-09-01T14:05:41.588Z,22.25
2022-09-01T14:08:12.466Z,19.30
2022-09-01T14:10:52.591Z,11.02
2022-09-01T14:13:25.616Z,13.07
2022-09-01T14:15:54.179Z,14.77
2022-09-01T14:18:23.275Z,16.02
2022-09-01T14:20:52.389Z,15.70
2022-09-01T14:23:20.563Z,14.23
2022-09-01T14:25:51.073Z,18.17
2022-09-01T14:28:21.103Z,8.45
2022-09-01T14:33:18.877Z,9.13
2022-09-01T14:35:48.807Z,9.32
2022-09-01T14:38:17.501Z,8.20
2022-09-01T14:40:49.506Z,6.13
2022-09-01T14:43:17.233Z,12.15
2022-09-01T14:45:48.477Z,17.30
2022-09-01T14:48:19.255Z,12.02
2022-09-01T14:50:52.058Z,6.75
2022-09-01T14:53:19.941Z,7.95
2022-09-01T14:55:48.920Z,10.60
2022-09-01T14:58:17.426Z,9.98
2022-09-01T15:00:45.387Z,4.65
2022-09-01T15:03:13.176Z,1.38
2022-09-01T15:05:41.479Z,2.85
2022-09-01T15:08:15.548Z,7.90
2022-09-01T15:10:44.903Z,2.13
2022-09-01T15:13:13.820Z,6.90
2022-09-01T15:15:42.443Z,2.42
2022-09-01T15:18:11.156Z,1.67
2022-09-01T15:20:45.544Z,2.00
2022-09-01T15:23:20.718Z,1.77
2022-09-01T15:25:49.453Z,1.60
2022-09-01T15:28:17.159Z,2.80
2022-09-01T15:30:47.274Z,3.13
2022-09-01T15:33:16.354Z,3.67
2022-09-01T15:35:46.182Z,1.85
2022-09-01T15:38:17.889Z,6.65
2022-09-01T15:40:55.617Z,10.90
2022-09-01T15:43:28.135Z,13.57
2022-09-01T15:46:00.661Z,7.05
2022-09-01T15:48:29.313Z,7.20
2022-09-01T15:51:22.977Z,10.95
2022-09-01T15:53:58.093Z,3.65
2022-09-01T15:56:26.040Z,5.05
2022-09-01T15:59:02.217Z,2.55
2022-09-01T16:01:33.655Z,9.65
2022-09-01T16:04:01.661Z,11.93
2022-09-01T16:06:29.947Z,10.82
2022-09-01T16:08:58.028Z,5.00
2022-09-01T16:11:26.735Z,7.78
2022-09-01T16:13:55.383Z,7.55
2022-09-01T16:17:04.911Z,5.22
2022-09-01T16:19:54.420Z,8.30
2022-09-01T16:22:33.821Z,13.80
2022-09-01T16:25:14.291Z,7.75
2022-09-01T16:27:46.131Z,2.85
2022-09-01T16:30:21.949Z,5.00
2022-09-01T16:32:50.505Z,6.43
2022-09-01T16:35:20.228Z,7.72
2022-09-01T16:38:24.379Z,4.10
2022-09-01T16:41:10.193Z,9.13
2022-09-01T16:44:18.699Z,6.13
2022-09-01T16:47:12.326Z,4.07
2022-09-01T16:50:16.389Z,6.47
2022-09-01T16:53:03.145Z,3.70
2022-09-01T16:56:25.053Z,1.17
2022-09-01T16:59:22.677Z,6.35
2022-09-01T17:02:05.287Z,3.00
2022-09-01T17:04:47.777Z,2.33
2022-09-01T17:07:21.691Z,7.15
2022-09-01T17:10:07.085Z,20.52
2022-09-01T17:12:56.264Z,113.60
2022-09-01T17:15:41.644Z,135.85
2022-09-01T17:18:23.144Z,147.60
2022-09-01T17:21:13.302Z,184.00
2022-09-01T17:24:44.180Z,122.57
2022-09-01T17:27:29.087Z,126.63
2022-09-01T17:29:58.542Z,104.18
2022-09-01T17:32:52.340Z,78.25
2022-09-01T17:35:43.483Z,74.80
2022-09-01T17:38:49.393Z,54.92
2022-09-01T17:42:11.435Z,58.15
2022-09-01T17:45:13.228Z,44.83
2022-09-01T17:48:27.249Z,50.55
2022-09-01T17:51:13.579Z,49.60
2022-09-01T17:53:56.316Z,37.60
2022-09-01T17:56:55.557Z,46.28
2022-09-01T17:59:45.017Z,37.35
2022-09-01T18:02:39.858Z,33.75
2022-09-01T18:05:13.773Z,32.37
2022-09-01T18:08:03.239Z,42.35
2022-09-01T18:10:38.638Z,23.17
2022-09-01T18:13:25.851Z,24.70
2022-09-01T18:16:12.648Z,22.20
2022-09-01T18:18:48.829Z,21.30
2022-09-01T18:22:01.399Z,21.23
2022-09-01T18:24:58.048Z,23.42
2022-09-01T18:27:28.831Z,48.63
2022-09-01T18:30:01.534Z,31.67
2022-09-01T18:32:50.761Z,26.92
2022-09-01T18:35:30.144Z,30.70
2022-09-01T18:38:45.036Z,30.85
2022-09-01T18:41:49.642Z,36.03
2022-09-01T18:44:35.105Z,20.75
2022-09-01T18:47:14.198Z,18.13
2022-09-01T18:49:55.541Z,21.55
2022-09-01T18:52:59.705Z,21.70
2022-09-01T18:55:53.434Z,20.65
2022-09-01T18:58:40.835Z,25.65
2022-09-01T19:01:16.554Z,21.70
2022-09-01T19:04:13.843Z,24.40
2022-09-01T19:07:17.923Z,18.25
2022-09-01T19:10:09.206Z,20.55
2022-09-01T19:12:47.350Z,11.48
2022-09-01T19:15:25.945Z,14.13
2022-09-01T19:18:22.752Z,20.45
2022-09-01T19:21:16.738Z,21.42
2022-09-01T19:23:50.546Z,16.63
2022-09-01T19:26:25.341Z,16.70
2022-09-01T19:28:57.647Z,24.50
2022-09-01T19:31:31.628Z,16.85
2022-09-01T19:34:05.454Z,10.10
2022-09-01T19:36:51.466Z,15.20
2022-09-01T19:39:30.444Z,22.88
2022-09-01T19:42:08.914Z,21.10
2022-09-01T19:44:51.668Z,14.88
2022-09-01T19:47:47.952Z,17.02
2022-09-01T19:50:58.914Z,17.50
2022-09-01T19:53:52.745Z,14.60
2022-09-01T19:56:52.039Z,10.85
2022-09-01T19:59:25.447Z,11.27
2022-09-01T20:02:10.539Z,13.35
2022-09-01T20:05:18.592Z,12.05
2022-09-01T20:08:20.402Z,10.80
2022-09-01T20:11:05.488Z,9.43
2022-09-01T20:13:57.997Z,7.05
2022-09-01T20:16:55.903Z,11.13
2022-09-01T20:19:32.416Z,11.68
2022-09-01T20:22:41.420Z,10.57
2022-09-01T20:25:18.139Z,4.82
2022-09-01T20:28:25.922Z,12.40
2022-09-01T20:31:10.179Z,4.75
2022-09-01T20:33:47.076Z,19.88
2022-09-01T20:36:45.531Z,15.75
2022-09-01T20:39:50.301Z,29.48
2022-09-01T20:42:35.629Z,16.50
2022-09-01T20:48:07.703Z,15.40
2022-09-01T20:51:00.931Z,7.22
2022-09-01T20:54:06.601Z,12.57
2022-09-01T20:57:00.388Z,8.07
2022-09-01T20:59:54.763Z,5.05
2022-09-01T21:03:12.258Z,6.57
2022-09-01T21:06:28.405Z,7.57
2022-09-01T21:09:15.906Z,9.63
2022-09-01T21:12:05.097Z,10.30
2022-09-01T21:15:32.451Z,4.90
2022-09-01T21:18:38.097Z,7.60
2022-09-01T21:21:26.296Z,5.13
2022-09-01T21:23:53.931Z,5.90
2022-09-01T21:26:21.936Z,7.15
2022-09-01T21:28:55.523Z,6.43
2022-09-01T21:31:24.474Z,10.00
2022-09-01T21:33:52.344Z,5.45
2022-09-01T21:36:19.995Z,3.45
2022-09-01T21:38:47.561Z,6.20
2022-09-01T21:41:15.268Z,4.90
2022-09-01T21:43:46.069Z,4.95
2022-09-01T21:46:15.401Z,4.78
2022-09-01T21:48:43.023Z,2.47
2022-09-01T21:51:13.545Z,4.18
2022-09-01T21:53:41.227Z,5.57
2022-09-01T21:56:08.985Z,4.93
2022-09-01T21:58:42.087Z,4.22
2022-09-01T22:01:10.515Z,2.30
2022-09-01T22:03:41.815Z,5.90
2022-09-01T22:06:13.347Z,4.60
2022-09-01T22:08:40.973Z,3.65
2022-09-01T22:11:10.987Z,3.22
2022-09-01T22:13:38.589Z,3.95
2022-09-01T22:16:06.645Z,4.15
2022-09-01T22:18:34.529Z,3.55
2022-09-01T22:21:10.507Z,6.18
2022-09-01T22:23:38.977Z,5.30
2022-09-01T22:26:09.643Z,5.38
2022-09-01T22:28:43.158Z,6.63
2022-09-01T22:31:15.511Z,4.53
2022-09-01T22:33:43.602Z,1.83
2022-09-01T22:36:11.270Z,3.88
2022-09-01T22:38:38.772Z,4.38
2022-09-01T22:41:06.901Z,1.92
2022-09-01T22:43:34.608Z,3.60
2022-09-01T22:46:02.298Z,1.90
2022-09-01T22:48:30.084Z,4.85
2022-09-01T22:50:57.637Z,2.67
2022-09-01T22:53:25.162Z,3.60
2022-09-01T22:55:53.250Z,3.38
2022-09-01T22:58:21.078Z,0.80
2022-09-01T23:00:55.541Z,1.95
2022-09-01T23:03:23.879Z,3.90
2022-09-01T23:06:07.774Z,1.98
2022-09-01T23:08:35.459Z,4.35
2022-09-01T23:11:03.108Z,6.90
2022-09-01T23:13:30.560Z,5.07
2022-09-01T23:16:03.422Z,4.20
2022-09-01T23:18:34.580Z,4.38
2022-09-01T23:21:04.639Z,2.10
2022-09-01T23:23:33.304Z,2.03
2022-09-01T23:26:03.470Z,3.08
2022-09-01T23:28:34.312Z,1.48
2022-09-01T23:31:02.085Z,3.72
2022-09-01T23:33:31.160Z,2.15
2022-09-01T23:35:59.305Z,2.60
2022-09-01T23:38:26.945Z,4.70
2022-09-01T23:40:56.645Z,2.60
2022-09-01T23:43:27.720Z,0.98
2022-09-01T23:45:57.113Z,0.98
2022-09-01T23:48:25.630Z,1.40
2022-09-01T23:50:57.791Z,0.98
2022-09-01T23:53:30.173Z,1.52
2022-09-01T23:56:03.094Z,3.47
2022-09-01T23:58:32.513Z,0.93
